Longview Heights, WA

7:10 AM PST on December 05, 2016 (GMT -0800)
| | Change Station
Active Advisory: Winter Weather Advisory

Elev -9999 ft 0.00 °N, 0.00 °E | Updated

Rain
Rain
°F
Feels Like °F
N
Wind Variable Wind from North
Gusts mph

Today
High -- | Low -- °F
--% Chance of Precip.
Yesterday
High -- | Low -- °F
Precip. -- in
Pressure 30.16 in
Visibility 10.0 miles
Clouds Overcast 1000 ft
Dew Point Not available.
Humidity Not available.
Rainfall --
Snow Depth Not available.
7:39 AM 4:26 PM
Waxing Crescent, 32% visible
METAR KKLS 051456Z AUTO 15010G15KT 10SM RA OVC010 02/01 A3014 RMK AO2 CIG 008V012 SLP212 P0006 60007 T00220011 56023 FZRANO
Pressure 30.16 in
Visibility 10.0 miles
Clouds Overcast 1000 ft
Dew Point Not available.
Humidity Not available.
Rainfall --
Snow Depth Not available.
7:39 AM 4:26 PM
Waxing Crescent, 32% visible
METAR KKLS 051456Z AUTO 15010G15KT 10SM RA OVC010 02/01 A3014 RMK AO2 CIG 008V012 SLP212 P0006 60007 T00220011 56023 FZRANO

10-Day Weather Forecast

Almanac

Astronomy

Dec. 05, 2016 Rise Set
Actual Time
Civil Twilight
Nautical Twilight
Astronomical Twilight
Moon
Length of Visible Light
Length of Day
Tomorrow will be .
, % of the Moon is Illuminated

Today's Extremes

State Highs State Lows

Community

WunderPhotos

Upload Photos

1,955,780 photos uploaded!

WunderBlog® & News

Nearby

Air Quality

  Air Quality AQ Index Pollutant
Not available.

Snow Depth

Station Depth Elevation

Earthquake Activity

City Distance Mag. Time & Date
Minimum magnitude displayed is 2.5.

Coastal Water Temperatures

Place Temperature

Stations

Nearby Weather Stations

Station Location Temp. Windchill Dew Point Humidity Wind Precip. Elev Updated Type
                   

Watches & Warnings

Winter Weather Advisory
Issued: 3:40 AM PST Dec. 5, 2016 – National Weather Service

... Winter Weather Advisory remains in effect for the lower
Columbia and I-5 corridor in Cowlitz County until noon PST
today...

A Winter Weather Advisory for snow remains in effect until noon
PST today.

* Timing... snow showers continuing through the morning.

* Accumulation... 1 to 3 inches above 500 feet... an inch or less
below 500 feet.

* Impacts... the best chance for persistent snow will occur
during the morning commute. There is uncertainty whether snow
will stick to Road surfaces... but even falling snow may
result in travel delays or accidents. If you must drive
during this time... provide extra time for travel and
maintain space between vehicles.

Precautionary/preparedness actions...

A Winter Weather Advisory for snow means that periods of snow
will cause primarily travel difficulties. Be prepared for snow
covered roads and limited visibilities... and use caution while
driving.